Time;durP1;ratioP1;P1;durP2;ratioP2;P2;SDS_P1;SDS_P2;PMS_P1;PMS_P2;Temp;Humidity;BMP_temperature;BMP_pressure;BME280_temperature;BME280_humidity;BME280_pressure;Samples;Min_cycle;Max_cycle;Signal;HPM_P1;HPM_P2
2022/08/04 00:00:42;;;;;;;21.33;19.08;;;;;;;;;;1617895;30;21831;-57
2022/08/04 00:01:40;;;;;;;25.90;18.97;;;;;;;;;;1618739;30;21607;-57
2022/08/04 00:02:50;;;;;;;23.38;18.40;;;;;;;;;;1617846;30;21787;-58
2022/08/04 00:03:47;;;;;;;23.13;19.02;;;;;;;;;;1613349;30;22104;-58
2022/08/04 00:04:49;;;;;;;23.35;18.25;;;;;;;;;;1616993;30;21733;-58
2022/08/04 00:05:54;;;;;;;24.45;19.25;;;;;;;;;;1618443;30;22191;-58
2022/08/04 00:07:00;;;;;;;21.35;18.60;;;;;;;;;;1616899;30;21817;-58
2022/08/04 00:08:06;;;;;;;21.77;18.52;;;;;;;;;;1614672;30;21653;-58
2022/08/04 00:09:03;;;;;;;21.13;17.58;;;;;;;;;;1612485;30;21754;-58
2022/08/04 00:10:00;;;;;;;21.75;18.38;;;;;;;;;;1614315;30;21724;-58
2022/08/04 00:10:56;;;;;;;23.65;18.50;;;;;;;;;;1616731;30;22125;-57
2022/08/04 00:11:51;;;;;;;18.38;16.27;;;;;;;;;;1616017;30;21722;-58
2022/08/04 00:12:48;;;;;;;18.90;16.88;;;;;;;;;;1618936;30;21741;-59
2022/08/04 00:13:46;;;;;;;26.05;17.45;;;;;;;;;;1617499;30;21613;-57
2022/08/04 00:14:47;;;;;;;23.77;17.73;;;;;;;;;;1618414;30;21722;-57
2022/08/04 00:15:39;;;;;;;23.80;17.55;;;;;;;;;;1620512;30;22124;-57
2022/08/04 00:16:36;;;;;;;20.13;17.73;;;;;;;;;;1617373;30;21627;-57
2022/08/04 00:17:32;;;;;;;22.15;18.33;;;;;;;;;;1618485;30;22118;-58
2022/08/04 00:18:32;;;;;;;24.10;17.27;;;;;;;;;;1617072;30;21647;-58
2022/08/04 00:19:26;;;;;;;;;;;;;;;;;;1615355;30;21661;-57
2022/08/04 00:20:20;;;;;;;20.35;17.52;;;;;;;;;;1618589;30;22018;-57
2022/08/04 00:21:14;;;;;;;19.52;16.13;;;;;;;;;;1618054;30;21752;-57
2022/08/04 00:22:10;;;;;;;19.30;15.98;;;;;;;;;;1616458;30;22135;-57
2022/08/04 00:23:06;;;;;;;18.30;16.40;;;;;;;;;;1612011;30;22103;-58
2022/08/04 00:24:01;;;;;;;18.15;14.95;;;;;;;;;;1610963;30;22035;-57
2022/08/04 00:24:54;;;;;;;18.98;16.05;;;;;;;;;;1614439;30;21674;-58
2022/08/04 00:25:46;;;;;;;21.40;16.13;;;;;;;;;;1617484;30;21761;-59
2022/08/04 00:26:38;;;;;;;18.00;15.63;;;;;;;;;;1621284;30;22405;-58
2022/08/04 00:27:30;;;;;;;20.15;16.95;;;;;;;;;;1619341;30;21607;-58
2022/08/04 00:28:23;;;;;;;19.08;15.38;;;;;;;;;;1618145;30;21619;-57
2022/08/04 00:29:16;;;;;;;17.67;15.73;;;;;;;;;;1617913;30;21850;-58
2022/08/04 00:30:08;;;;;;;17.58;15.38;;;;;;;;;;1617422;30;21649;-58
2022/08/04 00:31:01;;;;;;;15.90;14.32;;;;;;;;;;1618331;30;22171;-58
2022/08/04 00:31:54;;;;;;;18.05;15.10;;;;;;;;;;1617649;30;21602;-58
2022/08/04 00:32:46;;;;;;;16.90;15.13;;;;;;;;;;1618356;30;22287;-57
2022/08/04 00:33:38;;;;;;;17.38;15.32;;;;;;;;;;1620567;30;22426;-58
2022/08/04 00:34:31;;;;;;;16.88;15.30;;;;;;;;;;1618455;30;22275;-58
2022/08/04 00:35:24;;;;;;;16.67;15.10;;;;;;;;;;1613504;30;21711;-58
2022/08/04 00:36:17;;;;;;;16.52;14.60;;;;;;;;;;1618470;30;21632;-58
2022/08/04 00:37:10;;;;;;;16.25;14.18;;;;;;;;;;1614126;30;21624;-57
2022/08/04 00:38:04;;;;;;;16.83;14.40;;;;;;;;;;1617687;30;22132;-58
2022/08/04 00:38:58;;;;;;;15.70;14.13;;;;;;;;;;1619138;30;21640;-58
2022/08/04 00:39:49;;;;;;;20.40;13.75;;;;;;;;;;1612901;30;22005;-58
2022/08/04 00:40:53;;;;;;;16.17;14.50;;;;;;;;;;1613914;30;22192;-58
2022/08/04 00:42:04;;;;;;;18.02;13.60;;;;;;;;;;1614482;30;22194;-58
2022/08/04 00:43:10;;;;;;;15.20;13.68;;;;;;;;;;1618131;30;21604;-58
2022/08/04 00:44:16;;;;;;;16.13;14.40;;;;;;;;;;1617915;30;22076;-57
2022/08/04 00:46:11;;;;;;;14.40;13.13;;;;;;;;;;1619630;30;21731;-62
2022/08/04 00:47:30;;;;;;;14.45;13.05;;;;;;;;;;1618715;30;21675;-62
2022/08/04 00:48:40;;;;;;;14.20;12.80;;;;;;;;;;1616276;30;22102;-62
2022/08/04 00:50:04;;;;;;;16.42;13.82;;;;;;;;;;1613569;30;21675;-62
2022/08/04 00:51:11;;;;;;;14.02;12.75;;;;;;;;;;1617303;30;21799;-62
2022/08/04 00:52:21;;;;;;;13.55;12.35;;;;;;;;;;1615328;30;21785;-62
2022/08/04 00:53:33;;;;;;;13.80;12.48;;;;;;;;;;1618206;30;22174;-62
2022/08/04 00:54:35;;;;;;;13.10;11.75;;;;;;;;;;1619464;30;22239;-62
2022/08/04 00:56:04;;;;;;;13.70;12.52;;;;;;;;;;1618579;30;21624;-62
2022/08/04 00:57:30;;;;;;;18.50;13.98;;;;;;;;;;1616069;30;21621;-62
2022/08/04 00:58:42;;;;;;;12.50;11.45;;;;;;;;;;1614280;30;21756;-61
2022/08/04 00:59:59;;;;;;;15.63;12.43;;;;;;;;;;1614072;30;22133;-62
2022/08/04 01:00:59;;;;;;;12.32;11.23;;;;;;;;;;1617301;30;21694;-62
2022/08/04 01:02:00;;;;;;;15.10;12.07;;;;;;;;;;1614552;30;21609;-61
2022/08/04 01:03:17;;;;;;;13.75;12.32;;;;;;;;;;1619312;30;21611;-62
2022/08/04 01:04:17;;;;;;;12.70;11.52;;;;;;;;;;1617422;30;21735;-62
2022/08/04 01:05:20;;;;;;;14.88;12.38;;;;;;;;;;1617895;30;21674;-62
2022/08/04 01:06:32;;;;;;;13.57;12.23;;;;;;;;;;1613696;30;22102;-62
2022/08/04 01:07:44;;;;;;;12.27;11.02;;;;;;;;;;1620120;30;22671;-62
2022/08/04 01:08:53;;;;;;;13.40;10.48;;;;;;;;;;1616743;30;22243;-62
2022/08/04 01:10:01;;;;;;;14.85;11.15;;;;;;;;;;1617975;30;21690;-62
2022/08/04 01:11:05;;;;;;;12.93;11.40;;;;;;;;;;1619499;30;22049;-61
2022/08/04 01:12:15;;;;;;;12.82;11.60;;;;;;;;;;1620101;30;21756;-62
2022/08/04 01:13:22;;;;;;;;;;;;;;;;;;1617618;30;22246;-62
2022/08/04 01:14:50;;;;;;;11.45;10.52;;;;;;;;;;1620804;30;21511;-62
2022/08/04 01:15:52;;;;;;;11.05;10.05;;;;;;;;;;1616252;30;21598;-61
2022/08/04 01:16:51;;;;;;;11.80;10.65;;;;;;;;;;1618547;30;22204;-62
2022/08/04 01:17:59;;;;;;;15.40;11.05;;;;;;;;;;1619153;30;21656;-62
2022/08/04 01:18:59;;;;;;;11.85;10.32;;;;;;;;;;1614947;30;21964;-61
2022/08/04 01:20:01;;;;;;;12.02;11.00;;;;;;;;;;1615752;30;21837;-61
2022/08/04 01:21:06;;;;;;;12.63;11.52;;;;;;;;;;1619273;30;21932;-62
2022/08/04 01:22:17;;;;;;;12.60;11.27;;;;;;;;;;1614892;30;22249;-62
2022/08/04 01:23:41;;;;;;;11.57;10.48;;;;;;;;;;1619289;30;22270;-61
2022/08/04 01:24:58;;;;;;;11.27;10.27;;;;;;;;;;1615251;30;21808;-62
2022/08/04 01:26:26;;;;;;;11.65;10.65;;;;;;;;;;1617646;30;22321;-62
2022/08/04 01:27:26;;;;;;;12.38;10.50;;;;;;;;;;1618520;30;22065;-62
2022/08/04 01:28:31;;;;;;;13.93;10.00;;;;;;;;;;1617909;30;21659;-61
2022/08/04 01:29:27;;;;;;;12.05;10.10;;;;;;;;;;1612298;30;22147;-62
2022/08/04 01:30:19;;;;;;;11.52;10.55;;;;;;;;;;1619281;30;22486;-61
2022/08/04 01:31:20;;;;;;;12.00;9.77;;;;;;;;;;1624361;30;21760;-61
2022/08/04 01:32:20;;;;;;;11.25;10.13;;;;;;;;;;1621816;29;22084;-62
2022/08/04 01:33:13;;;;;;;12.60;10.45;;;;;;;;;;1616886;30;22414;-62
2022/08/04 01:34:11;;;;;;;11.23;10.32;;;;;;;;;;1620286;30;21978;-62
2022/08/04 01:35:09;;;;;;;9.65;8.88;;;;;;;;;;1618247;30;21662;-62
2022/08/04 01:36:05;;;;;;;12.43;10.10;;;;;;;;;;1617134;30;21631;-61
2022/08/04 01:37:03;;;;;;;10.15;9.32;;;;;;;;;;1614694;30;21596;-62
2022/08/04 01:38:01;;;;;;;10.02;9.20;;;;;;;;;;1618216;30;22764;-62
2022/08/04 01:38:54;;;;;;;11.88;9.20;;;;;;;;;;1618253;30;22107;-61
2022/08/04 01:39:50;;;;;;;10.60;9.70;;;;;;;;;;1618109;30;21755;-62
2022/08/04 01:40:44;;;;;;;10.80;9.70;;;;;;;;;;1617062;30;21622;-62
2022/08/04 01:41:36;;;;;;;10.73;9.73;;;;;;;;;;1617564;30;22459;-60
2022/08/04 01:42:32;;;;;;;9.82;9.15;;;;;;;;;;1618000;30;21818;-61
2022/08/04 01:43:23;;;;;;;10.80;9.82;;;;;;;;;;1618201;30;22344;-62
2022/08/04 01:44:19;;;;;;;10.35;9.32;;;;;;;;;;1617463;30;21593;-62
2022/08/04 01:45:13;;;;;;;10.00;9.20;;;;;;;;;;1619383;30;22221;-61
2022/08/04 01:46:06;;;;;;;10.18;9.27;;;;;;;;;;1616532;30;21805;-61
2022/08/04 01:47:00;;;;;;;10.85;9.68;;;;;;;;;;1617313;30;21769;-62
2022/08/04 01:47:57;;;;;;;10.38;9.48;;;;;;;;;;1617955;30;22287;-62
2022/08/04 01:48:53;;;;;;;9.35;8.57;;;;;;;;;;1616046;30;22392;-62
2022/08/04 01:49:50;;;;;;;10.35;9.32;;;;;;;;;;1619163;30;21670;-62
2022/08/04 01:50:44;;;;;;;10.20;9.20;;;;;;;;;;1619954;30;21658;-62
2022/08/04 01:51:40;;;;;;;9.68;8.65;;;;;;;;;;1615826;30;21594;-62
2022/08/04 01:52:33;;;;;;;9.10;8.50;;;;;;;;;;1615388;30;21789;-62
2022/08/04 01:53:31;;;;;;;9.73;8.70;;;;;;;;;;1618252;30;21618;-57
2022/08/04 01:54:23;;;;;;;10.98;9.45;;;;;;;;;;1615082;30;22209;-57
2022/08/04 01:55:17;;;;;;;8.90;8.27;;;;;;;;;;1619337;30;21665;-58
2022/08/04 01:56:11;;;;;;;10.63;9.52;;;;;;;;;;1620199;30;21823;-58
2022/08/04 01:57:06;;;;;;;12.55;9.43;;;;;;;;;;1612912;30;22007;-57
2022/08/04 01:57:59;;;;;;;10.07;9.02;;;;;;;;;;1618952;30;22058;-57
2022/08/04 01:58:57;;;;;;;11.45;9.00;;;;;;;;;;1618575;30;21592;-58
2022/08/04 01:59:52;;;;;;;9.77;8.88;;;;;;;;;;1614238;30;22001;-57
2022/08/04 02:00:56;;;;;;;9.80;8.73;;;;;;;;;;1620674;30;21623;-58
2022/08/04 02:01:47;;;;;;;9.93;8.90;;;;;;;;;;1613468;30;22449;-58
2022/08/04 02:02:40;;;;;;;10.10;9.10;;;;;;;;;;1617518;30;21760;-57
2022/08/04 02:03:32;;;;;;;15.75;8.70;;;;;;;;;;1616924;30;21663;-58
2022/08/04 02:04:24;;;;;;;9.40;8.70;;;;;;;;;;1619466;30;21719;-57
2022/08/04 02:05:18;;;;;;;9.80;8.90;;;;;;;;;;1619242;30;21748;-58
2022/08/04 02:06:23;;;;;;;12.00;8.45;;;;;;;;;;1617505;30;21768;-58
2022/08/04 02:07:27;;;;;;;8.65;7.75;;;;;;;;;;1618156;30;22061;-57
2022/08/04 02:08:29;;;;;;;10.30;8.27;;;;;;;;;;1615489;30;21965;-57
2022/08/04 02:09:29;;;;;;;10.10;8.32;;;;;;;;;;1611185;30;21627;-58
2022/08/04 02:10:28;;;;;;;9.57;8.88;;;;;;;;;;1620267;30;21732;-58
2022/08/04 02:11:21;;;;;;;11.35;8.73;;;;;;;;;;1616410;30;21821;-58
2022/08/04 02:12:25;;;;;;;8.93;8.15;;;;;;;;;;1618736;30;22224;-58
2022/08/04 02:13:53;;;;;;;8.48;7.85;;;;;;;;;;1616745;30;22077;-58
2022/08/04 02:14:55;;;;;;;8.52;7.82;;;;;;;;;;1616357;30;21669;-57
2022/08/04 02:16:05;;;;;;;8.07;7.40;;;;;;;;;;1617743;30;22255;-58
2022/08/04 02:16:56;;;;;;;8.75;7.72;;;;;;;;;;1613489;30;21895;-58
2022/08/04 02:17:59;;;;;;;8.88;8.07;;;;;;;;;;1620080;30;21658;-56
2022/08/04 02:19:00;;;;;;;8.10;7.50;;;;;;;;;;1618528;30;22583;-57
2022/08/04 02:20:05;;;;;;;9.18;8.30;;;;;;;;;;1617225;30;21734;-58
2022/08/04 02:20:58;;;;;;;9.50;8.70;;;;;;;;;;1617634;30;21620;-58
2022/08/04 02:21:58;;;;;;;9.20;8.35;;;;;;;;;;1617111;30;22246;-57
2022/08/04 02:22:57;;;;;;;9.90;8.23;;;;;;;;;;1611701;30;21696;-58
2022/08/04 02:23:57;;;;;;;13.52;8.70;;;;;;;;;;1617953;30;22878;-57
2022/08/04 02:24:49;;;;;;;11.35;9.20;;;;;;;;;;1615242;30;21728;-58
2022/08/04 02:25:56;;;;;;;10.85;8.48;;;;;;;;;;1616983;30;22288;-58
2022/08/04 02:26:49;;;;;;;8.70;8.10;;;;;;;;;;1615243;30;21914;-58
2022/08/04 02:28:12;;;;;;;8.25;7.55;;;;;;;;;;1617172;30;22193;-57
2022/08/04 02:29:15;;;;;;;8.90;7.60;;;;;;;;;;1614093;30;21601;-58
2022/08/04 02:30:08;;;;;;;8.25;7.53;;;;;;;;;;1617624;30;21741;-57
2022/08/04 02:31:18;;;;;;;8.63;7.93;;;;;;;;;;1619418;30;21814;-58
2022/08/04 02:32:18;;;;;;;8.40;7.45;;;;;;;;;;1617147;30;22221;-62
2022/08/04 02:33:15;;;;;;;9.15;7.78;;;;;;;;;;1618143;30;21648;-61
2022/08/04 02:34:25;;;;;;;8.18;7.57;;;;;;;;;;1619290;30;21662;-62
2022/08/04 02:35:25;;;;;;;11.90;8.90;;;;;;;;;;1620889;30;21617;-62
2022/08/04 02:36:24;;;;;;;8.88;8.02;;;;;;;;;;1613019;30;22778;-62
2022/08/04 02:37:17;;;;;;;8.63;6.78;;;;;;;;;;1618105;30;23394;-61
2022/08/04 02:38:21;;;;;;;9.15;8.27;;;;;;;;;;1620884;30;22145;-62
2022/08/04 02:39:18;;;;;;;8.30;7.60;;;;;;;;;;1619481;30;21791;-62
2022/08/04 02:40:12;;;;;;;7.25;6.65;;;;;;;;;;1619974;30;22324;-62
2022/08/04 02:41:05;;;;;;;8.45;7.65;;;;;;;;;;1617292;30;22150;-61
2022/08/04 02:41:59;;;;;;;7.97;7.25;;;;;;;;;;1618539;30;22281;-61
2022/08/04 02:42:54;;;;;;;7.80;7.10;;;;;;;;;;1618675;30;21669;-62
2022/08/04 02:43:49;;;;;;;8.35;7.75;;;;;;;;;;1617218;30;21645;-62
2022/08/04 02:44:42;;;;;;;8.10;7.47;;;;;;;;;;1618861;30;21731;-62
2022/08/04 02:45:37;;;;;;;11.57;6.85;;;;;;;;;;1618158;30;21764;-62
2022/08/04 02:46:32;;;;;;;10.90;7.60;;;;;;;;;;1618713;30;21779;-62
2022/08/04 02:47:27;;;;;;;7.50;6.90;;;;;;;;;;1618373;30;21658;-61
2022/08/04 02:48:21;;;;;;;11.50;8.02;;;;;;;;;;1622732;30;21769;-62
2022/08/04 02:49:15;;;;;;;7.93;7.13;;;;;;;;;;1618012;30;21815;-62
2022/08/04 02:50:11;;;;;;;9.32;7.65;;;;;;;;;;1618170;30;21854;-62
2022/08/04 02:51:04;;;;;;;8.02;7.22;;;;;;;;;;1617465;30;21740;-61
2022/08/04 02:51:57;;;;;;;7.30;6.78;;;;;;;;;;1618539;30;21594;-61
2022/08/04 02:52:52;;;;;;;7.88;6.72;;;;;;;;;;1619067;30;21663;-61
2022/08/04 02:53:44;;;;;;;8.43;7.18;;;;;;;;;;1618844;30;21616;-62
2022/08/04 02:54:41;;;;;;;8.13;7.50;;;;;;;;;;1619276;30;21986;-62
2022/08/04 02:55:34;;;;;;;7.75;7.15;;;;;;;;;;1619685;30;22151;-62
2022/08/04 02:56:31;;;;;;;8.82;7.50;;;;;;;;;;1616299;30;21655;-62
2022/08/04 02:57:26;;;;;;;8.13;7.43;;;;;;;;;;1618037;30;22568;-61
2022/08/04 02:58:20;;;;;;;7.43;6.85;;;;;;;;;;1619455;30;22128;-62
2022/08/04 02:59:13;;;;;;;9.68;7.35;;;;;;;;;;1616469;30;22246;-62
2022/08/04 03:00:08;;;;;;;7.20;6.60;;;;;;;;;;1618633;30;21745;-62
2022/08/04 03:01:00;;;;;;;7.90;7.30;;;;;;;;;;1618386;30;21811;-62
2022/08/04 03:01:56;;;;;;;7.65;6.95;;;;;;;;;;1620256;30;22217;-62
2022/08/04 03:03:02;;;;;;;8.88;6.22;;;;;;;;;;1619817;30;21709;-62
2022/08/04 03:04:22;;;;;;;7.65;6.70;;;;;;;;;;1619113;30;21694;-61
2022/08/04 03:05:17;;;;;;;8.52;7.13;;;;;;;;;;1618561;30;21738;-62
2022/08/04 03:06:54;;;;;;;9.85;6.60;;;;;;;;;;1616002;30;22177;-62
2022/08/04 03:08:34;;;;;;;7.70;7.18;;;;;;;;;;1614648;30;21929;-61
2022/08/04 03:10:15;;;;;;;7.95;6.97;;;;;;;;;;1614647;30;22510;-62
2022/08/04 03:11:50;;;;;;;9.13;7.00;;;;;;;;;;1616153;30;22276;-62
2022/08/04 03:13:52;;;;;;;7.53;6.68;;;;;;;;;;1612744;30;22144;-62
2022/08/04 03:15:26;;;;;;;8.45;6.35;;;;;;;;;;1605948;30;21605;-62
2022/08/04 03:16:40;;;;;;;7.68;6.97;;;;;;;;;;1605958;30;21837;-62
2022/08/04 03:18:49;;;;;;;7.55;6.38;;;;;;;;;;1615090;30;21763;-61
2022/08/04 03:20:24;;;;;;;7.63;6.85;;;;;;;;;;1594116;30;22160;-62
2022/08/04 03:21:43;;;;;;;6.60;6.10;;;;;;;;;;1554521;31;22253;-62
2022/08/04 03:23:07;;;;;;;6.47;5.97;;;;;;;;;;1594483;30;22140;-61
2022/08/04 03:24:42;;;;;;;6.38;5.82;;;;;;;;;;1589931;30;22277;-62
2022/08/04 03:26:12;;;;;;;7.00;6.40;;;;;;;;;;1618559;30;22117;-61
2022/08/04 03:27:28;;;;;;;7.28;6.40;;;;;;;;;;1619065;30;21656;-62
2022/08/04 03:29:03;;;;;;;7.68;6.57;;;;;;;;;;1620349;30;22259;-62
2022/08/04 03:30:10;;;;;;;6.70;6.05;;;;;;;;;;1615237;30;21744;-61
2022/08/04 03:31:31;;;;;;;6.63;6.13;;;;;;;;;;1617025;30;21677;-62
2022/08/04 03:32:57;;;;;;;6.78;6.18;;;;;;;;;;1618081;30;21663;-62
2022/08/04 03:34:03;;;;;;;8.68;6.65;;;;;;;;;;1616044;30;21641;-61
2022/08/04 03:35:16;;;;;;;6.50;6.00;;;;;;;;;;1616556;30;22595;-61
2022/08/04 03:37:01;;;;;;;9.32;5.97;;;;;;;;;;1615682;30;21752;-62
2022/08/04 03:38:18;;;;;;;6.30;5.80;;;;;;;;;;1617859;30;21641;-61
2022/08/04 03:39:56;;;;;;;6.57;5.95;;;;;;;;;;1615090;30;21575;-62
2022/08/04 03:41:25;;;;;;;6.22;5.63;;;;;;;;;;1615339;30;22125;-62
2022/08/04 03:42:41;;;;;;;9.00;6.40;;;;;;;;;;1617794;30;21753;-61
2022/08/04 03:43:54;;;;;;;6.47;5.88;;;;;;;;;;1617469;30;21934;-61
2022/08/04 03:45:50;;;;;;;6.28;5.85;;;;;;;;;;1618726;30;21659;-62
2022/08/04 03:47:13;;;;;;;6.00;5.45;;;;;;;;;;1616455;30;21757;-62
2022/08/04 03:49:03;;;;;;;6.55;5.95;;;;;;;;;;1619450;30;21631;-62
2022/08/04 03:50:25;;;;;;;6.72;6.15;;;;;;;;;;1619683;30;21651;-61
2022/08/04 03:53:27;;;;;;;6.55;5.70;;;;;;;;;;1618217;30;21582;-62
2022/08/04 03:55:06;;;;;;;6.60;5.93;;;;;;;;;;1618951;30;21599;-62
2022/08/04 03:56:41;;;;;;;6.88;6.38;;;;;;;;;;1614582;30;22061;-62
2022/08/04 03:58:32;;;;;;;6.40;5.88;;;;;;;;;;1618219;30;21607;-62
2022/08/04 03:59:59;;;;;;;5.68;5.18;;;;;;;;;;1602548;30;21801;-62
2022/08/04 04:01:03;;;;;;;5.75;5.25;;;;;;;;;;1618231;30;22037;-61
2022/08/04 04:02:22;;;;;;;5.82;5.40;;;;;;;;;;1617030;30;22014;-62
2022/08/04 04:04:03;;;;;;;6.18;5.65;;;;;;;;;;1612626;30;21941;-62
2022/08/04 04:05:26;;;;;;;6.55;6.05;;;;;;;;;;1618488;30;21817;-62
2022/08/04 04:06:53;;;;;;;6.28;5.78;;;;;;;;;;1612751;30;21626;-62
2022/08/04 04:08:34;;;;;;;5.50;5.05;;;;;;;;;;1617951;30;21787;-62
2022/08/04 04:10:23;;;;;;;5.95;5.50;;;;;;;;;;1591898;30;21694;-62
2022/08/04 04:11:33;;;;;;;5.63;5.13;;;;;;;;;;1589153;30;21735;-62
2022/08/04 04:12:49;;;;;;;5.95;5.55;;;;;;;;;;1623864;29;21590;-62
2022/08/04 04:14:16;;;;;;;6.65;5.65;;;;;;;;;;1624730;30;22066;-62
2022/08/04 04:15:34;;;;;;;5.32;4.88;;;;;;;;;;1615434;30;21599;-62
2022/08/04 04:16:45;;;;;;;5.80;5.13;;;;;;;;;;1620456;30;21613;-61
2022/08/04 04:17:57;;;;;;;6.55;5.93;;;;;;;;;;1615000;30;21597;-62
2022/08/04 04:19:18;;;;;;;5.40;4.95;;;;;;;;;;1618646;30;22298;-62
2022/08/04 04:20:46;;;;;;;5.57;5.13;;;;;;;;;;1617785;30;22112;-61
2022/08/04 04:22:16;;;;;;;4.90;4.50;;;;;;;;;;1620594;30;21692;-62
2022/08/04 04:23:44;;;;;;;5.93;5.43;;;;;;;;;;1616581;30;21969;-61
2022/08/04 04:25:04;;;;;;;5.70;5.20;;;;;;;;;;1620867;30;21904;-61
2022/08/04 04:26:09;;;;;;;5.55;5.05;;;;;;;;;;1615788;30;21654;-60
2022/08/04 04:27:16;;;;;;;5.68;5.10;;;;;;;;;;1620201;30;22121;-62
2022/08/04 04:28:55;;;;;;;5.80;5.30;;;;;;;;;;1623574;30;22078;-62
2022/08/04 04:30:08;;;;;;;6.97;5.22;;;;;;;;;;1620341;30;22582;-62
2022/08/04 04:31:21;;;;;;;6.05;5.18;;;;;;;;;;1615310;30;21712;-60
2022/08/04 04:32:23;;;;;;;6.60;4.72;;;;;;;;;;1616555;30;21759;-62
2022/08/04 04:33:34;;;;;;;7.07;5.32;;;;;;;;;;1618232;30;21867;-62
2022/08/04 04:34:44;;;;;;;6.00;5.50;;;;;;;;;;1618437;30;21901;-61
2022/08/04 04:35:48;;;;;;;4.70;4.40;;;;;;;;;;1615385;30;21978;-62
2022/08/04 04:36:58;;;;;;;5.63;5.13;;;;;;;;;;1619192;30;21607;-62
2022/08/04 04:38:21;;;;;;;5.07;4.65;;;;;;;;;;1618937;30;22188;-62
2022/08/04 04:39:24;;;;;;;4.72;4.43;;;;;;;;;;1614571;30;21612;-62
2022/08/04 04:40:30;;;;;;;5.28;4.88;;;;;;;;;;1619650;30;21553;-62
2022/08/04 04:41:45;;;;;;;8.02;5.13;;;;;;;;;;1618100;30;22078;-62
2022/08/04 04:43:02;;;;;;;5.50;5.03;;;;;;;;;;1612102;30;21595;-61
2022/08/04 04:44:22;;;;;;;4.90;4.60;;;;;;;;;;1617985;30;21838;-62
2022/08/04 04:45:24;;;;;;;5.20;4.80;;;;;;;;;;1613670;30;21715;-61
2022/08/04 04:46:29;;;;;;;5.90;5.35;;;;;;;;;;1618343;30;21616;-61
2022/08/04 04:47:34;;;;;;;4.75;4.35;;;;;;;;;;1618281;30;22048;-62
2022/08/04 04:48:36;;;;;;;4.63;4.32;;;;;;;;;;1618167;30;22295;-61
2022/08/04 04:49:37;;;;;;;4.18;3.88;;;;;;;;;;1614528;30;21582;-62
2022/08/04 04:50:42;;;;;;;5.05;4.57;;;;;;;;;;1617699;30;22157;-62
2022/08/04 04:51:57;;;;;;;6.22;5.22;;;;;;;;;;1620380;30;21584;-61
2022/08/04 04:52:53;;;;;;;4.53;4.20;;;;;;;;;;1613866;30;21669;-62
2022/08/04 04:54:06;;;;;;;5.22;4.82;;;;;;;;;;1617681;30;21611;-61
2022/08/04 04:55:09;;;;;;;4.60;4.30;;;;;;;;;;1615801;30;21730;-62
2022/08/04 04:56:08;;;;;;;4.57;4.28;;;;;;;;;;1616926;30;21933;-62
2022/08/04 04:57:09;;;;;;;4.72;4.32;;;;;;;;;;1616964;30;22490;-62
2022/08/04 04:58:02;;;;;;;5.40;5.00;;;;;;;;;;1619351;30;21940;-62
2022/08/04 04:58:55;;;;;;;5.90;4.72;;;;;;;;;;1617616;30;21813;-62
2022/08/04 04:59:53;;;;;;;5.35;4.32;;;;;;;;;;1618744;30;22298;-62
2022/08/04 05:01:16;;;;;;;6.65;4.75;;;;;;;;;;1618070;30;21598;-61
2022/08/04 05:02:57;;;;;;;5.22;4.82;;;;;;;;;;1615246;30;22309;-60
2022/08/04 05:04:13;;;;;;;5.82;4.90;;;;;;;;;;1614348;30;21590;-62
2022/08/04 05:05:28;;;;;;;6.25;5.75;;;;;;;;;;1620086;30;21617;-62
2022/08/04 05:06:53;;;;;;;5.15;4.75;;;;;;;;;;1612161;30;21725;-62
2022/08/04 05:08:30;;;;;;;4.97;4.57;;;;;;;;;;1617401;30;21609;-62
2022/08/04 05:09:43;;;;;;;4.25;3.92;;;;;;;;;;1616619;30;21633;-62
2022/08/04 05:10:51;;;;;;;5.13;4.72;;;;;;;;;;1619308;30;21779;-62
2022/08/04 05:12:18;;;;;;;4.60;4.22;;;;;;;;;;1614308;30;22089;-61
2022/08/04 05:13:35;;;;;;;4.75;4.35;;;;;;;;;;1620122;30;22164;-62
2022/08/04 05:14:31;;;;;;;5.85;4.60;;;;;;;;;;1615511;30;21853;-60
2022/08/04 05:15:31;;;;;;;7.32;4.57;;;;;;;;;;1618473;30;21621;-62
2022/08/04 05:16:31;;;;;;;7.25;4.45;;;;;;;;;;1617621;30;21709;-61
2022/08/04 05:17:27;;;;;;;5.30;4.93;;;;;;;;;;1618178;30;21641;-62
2022/08/04 05:18:24;;;;;;;6.68;4.57;;;;;;;;;;1616775;30;21717;-61
2022/08/04 05:19:31;;;;;;;7.72;4.35;;;;;;;;;;1617774;30;21767;-62
2022/08/04 05:20:32;;;;;;;4.43;4.03;;;;;;;;;;1613021;30;22031;-62
2022/08/04 05:21:38;;;;;;;5.15;4.75;;;;;;;;;;1617264;30;21676;-62
2022/08/04 05:22:39;;;;;;;5.10;4.47;;;;;;;;;;1618081;30;22249;-62
2022/08/04 05:23:36;;;;;;;4.57;4.28;;;;;;;;;;1619165;30;22151;-61
2022/08/04 05:24:31;;;;;;;5.13;4.65;;;;;;;;;;1617130;30;22055;-62
2022/08/04 05:25:26;;;;;;;6.07;4.68;;;;;;;;;;1619204;30;21619;-62
2022/08/04 05:26:26;;;;;;;4.22;3.92;;;;;;;;;;1618075;30;21854;-61
2022/08/04 05:27:29;;;;;;;4.75;4.45;;;;;;;;;;1617221;30;21732;-62
2022/08/04 05:28:27;;;;;;;4.05;3.75;;;;;;;;;;1612164;30;21622;-62
2022/08/04 05:29:26;;;;;;;4.20;3.80;;;;;;;;;;1613794;30;22103;-62
2022/08/04 05:30:20;;;;;;;5.53;5.13;;;;;;;;;;1618214;30;21588;-61
2022/08/04 05:31:15;;;;;;;4.55;4.15;;;;;;;;;;1619876;30;21714;-61
2022/08/04 05:32:13;;;;;;;4.35;4.05;;;;;;;;;;1618527;30;22600;-62
2022/08/04 05:33:09;;;;;;;3.80;3.53;;;;;;;;;;1618637;30;21614;-62
2022/08/04 05:34:09;;;;;;;4.07;3.78;;;;;;;;;;1617135;30;21994;-62
2022/08/04 05:35:07;;;;;;;5.07;3.72;;;;;;;;;;1616467;30;21851;-61
2022/08/04 05:36:06;;;;;;;4.80;4.40;;;;;;;;;;1617722;30;21679;-61
2022/08/04 05:37:01;;;;;;;5.97;4.32;;;;;;;;;;1616331;30;21898;-62
2022/08/04 05:37:56;;;;;;;4.50;3.72;;;;;;;;;;1619337;30;21662;-61
2022/08/04 05:38:53;;;;;;;4.60;4.22;;;;;;;;;;1613040;30;21760;-62
2022/08/04 05:39:55;;;;;;;4.30;4.00;;;;;;;;;;1617767;30;21650;-61
2022/08/04 05:40:48;;;;;;;4.80;4.47;;;;;;;;;;1617164;30;22300;-62
2022/08/04 05:41:42;;;;;;;4.72;4.18;;;;;;;;;;1619292;30;22159;-62
2022/08/04 05:42:38;;;;;;;4.15;3.85;;;;;;;;;;1614960;30;21697;-61
2022/08/04 05:43:31;;;;;;;4.13;3.88;;;;;;;;;;1619568;30;22098;-62
2022/08/04 05:44:24;;;;;;;4.25;3.95;;;;;;;;;;1621078;30;22334;-62
2022/08/04 05:45:17;;;;;;;4.53;4.10;;;;;;;;;;1618429;30;22541;-62
2022/08/04 05:46:09;;;;;;;4.80;3.90;;;;;;;;;;1617700;30;21856;-61
2022/08/04 05:47:03;;;;;;;4.47;4.18;;;;;;;;;;1618747;30;21753;-62
2022/08/04 05:47:54;;;;;;;4.47;4.07;;;;;;;;;;1618980;30;21655;-62
2022/08/04 05:48:48;;;;;;;4.68;4.25;;;;;;;;;;1619686;30;22495;-61
2022/08/04 05:49:40;;;;;;;4.43;3.63;;;;;;;;;;1616531;30;21626;-62
2022/08/04 05:50:33;;;;;;;5.28;4.40;;;;;;;;;;1617993;30;21816;-62
2022/08/04 05:51:29;;;;;;;5.95;4.20;;;;;;;;;;1618133;30;21746;-61
2022/08/04 05:52:22;;;;;;;4.80;4.50;;;;;;;;;;1615210;30;21628;-61
2022/08/04 05:53:15;;;;;;;4.10;3.90;;;;;;;;;;1618259;30;21650;-62
2022/08/04 05:54:10;;;;;;;4.25;3.97;;;;;;;;;;1619274;30;21757;-62
2022/08/04 05:55:04;;;;;;;5.03;4.15;;;;;;;;;;1619556;30;21703;-62
2022/08/04 05:55:57;;;;;;;4.80;4.40;;;;;;;;;;1619349;30;22070;-62
2022/08/04 05:56:49;;;;;;;4.05;3.75;;;;;;;;;;1618310;30;22349;-61
2022/08/04 05:57:43;;;;;;;10.27;4.45;;;;;;;;;;1613427;30;21813;-62
2022/08/04 05:58:35;;;;;;;3.83;3.53;;;;;;;;;;1620572;30;21609;-62
2022/08/04 05:59:29;;;;;;;5.07;3.63;;;;;;;;;;1616821;30;21624;-62
2022/08/04 06:00:20;;;;;;;4.20;3.90;;;;;;;;;;1615120;30;21588;-62
2022/08/04 06:01:14;;;;;;;4.13;3.83;;;;;;;;;;1616229;30;22199;-62
2022/08/04 06:02:08;;;;;;;6.13;4.30;;;;;;;;;;1613660;30;21983;-62
2022/08/04 06:03:02;;;;;;;4.22;3.83;;;;;;;;;;1610076;30;21940;-61
2022/08/04 06:03:56;;;;;;;4.38;4.07;;;;;;;;;;1618277;30;21605;-62
2022/08/04 06:04:51;;;;;;;4.93;3.65;;;;;;;;;;1619241;30;21635;-61
2022/08/04 06:05:43;;;;;;;4.13;3.83;;;;;;;;;;1615137;30;21610;-60
2022/08/04 06:06:38;;;;;;;4.10;3.80;;;;;;;;;;1619231;30;22106;-61
2022/08/04 06:07:29;;;;;;;4.22;3.80;;;;;;;;;;1615747;30;21735;-62
2022/08/04 06:08:21;;;;;;;4.05;3.75;;;;;;;;;;1614615;30;22164;-61
2022/08/04 06:09:13;;;;;;;3.97;3.67;;;;;;;;;;1617980;30;21666;-61
2022/08/04 06:10:07;;;;;;;4.85;4.38;;;;;;;;;;1617764;30;21797;-61
2022/08/04 06:11:04;;;;;;;3.50;3.22;;;;;;;;;;1616536;30;21809;-61
2022/08/04 06:11:59;;;;;;;5.03;4.15;;;;;;;;;;1618217;30;21606;-62
2022/08/04 06:12:56;;;;;;;4.80;3.38;;;;;;;;;;1617949;30;22004;-62
2022/08/04 06:13:56;;;;;;;4.25;3.88;;;;;;;;;;1617473;30;21724;-61
2022/08/04 06:14:51;;;;;;;3.97;3.67;;;;;;;;;;1618765;30;21604;-61
2022/08/04 06:15:47;;;;;;;3.85;3.55;;;;;;;;;;1620009;30;21650;-63
2022/08/04 06:16:42;;;;;;;3.65;3.45;;;;;;;;;;1620609;30;21728;-62
2022/08/04 06:17:42;;;;;;;3.95;3.65;;;;;;;;;;1613738;30;21660;-62
2022/08/04 06:18:36;;;;;;;3.60;3.40;;;;;;;;;;1612614;30;21595;-62
2022/08/04 06:19:30;;;;;;;3.58;3.33;;;;;;;;;;1615104;30;21611;-62
2022/08/04 06:20:27;;;;;;;4.15;3.70;;;;;;;;;;1618230;30;21612;-62
2022/08/04 06:21:24;;;;;;;3.75;3.53;;;;;;;;;;1618600;30;21774;-62
2022/08/04 06:22:19;;;;;;;4.88;3.67;;;;;;;;;;1620287;30;22270;-60
2022/08/04 06:23:16;;;;;;;5.68;3.67;;;;;;;;;;1619329;30;21652;-62
2022/08/04 06:24:13;;;;;;;3.65;3.40;;;;;;;;;;1618675;30;21628;-63
2022/08/04 06:25:08;;;;;;;3.67;3.38;;;;;;;;;;1620135;30;22269;-62
2022/08/04 06:26:01;;;;;;;4.00;3.70;;;;;;;;;;1617509;30;21663;-62